Time;durP1;ratioP1;P1;durP2;ratioP2;P2;SDS_P1;SDS_P2;PMS_P1;PMS_P2;Temp;Humidity;BMP_temperature;BMP_pressure;BME280_temperature;BME280_humidity;BME280_pressure;Samples;Min_cycle;Max_cycle;Signal;HPM_P1;HPM_P2
2023/03/13 00:00:09;;;;;;;;;;;;;;;10.93;33.34;99101.78;5093383;28;19916;-77
2023/03/13 00:02:34;;;;;;;;;;;;;;;10.91;32.95;99102.81;5091723;28;19916;-77
2023/03/13 00:04:59;;;;;;;;;;;;;;;10.88;33.22;99098.69;5091266;28;19923;-77
2023/03/13 00:07:25;;;;;;;;;;;;;;;10.83;33.58;99101.63;5091495;28;19982;-79
2023/03/13 00:09:50;;;;;;;;;;;;;;;10.80;33.61;99098.38;5091404;28;20372;-79
2023/03/13 00:12:16;;;;;;;;;;;;;;;10.77;33.96;99102.03;5091170;28;19931;-78
2023/03/13 00:14:42;;;;;;;;;;;;;;;10.74;33.83;99097.03;5074010;28;19923;-77
2023/03/13 00:17:07;;;;;;;;;;;;;;;10.73;34.02;99094.53;5091514;28;20337;-78
2023/03/13 00:19:32;;;;;;;;;;;;;;;10.71;34.01;99096.44;5091311;28;20306;-78
2023/03/13 00:21:57;;;;;;;;;;;;;;;10.68;34.35;99093.06;5091217;28;19916;-77
2023/03/13 00:24:23;;;;;;;;;;;;;;;10.67;34.48;99096.66;5074103;28;19970;-78
2023/03/13 00:26:48;;;;;;;;;;;;;;;10.66;34.76;99097.59;5091236;28;19963;-78
2023/03/13 00:29:13;;;;;;;;;;;;;;;10.66;34.72;99094.16;5091460;28;20393;-77
2023/03/13 00:31:39;;;;;;;;;;;;;;;10.64;34.92;99099.47;5091316;28;19922;-77
2023/03/13 00:34:04;;;;;;;;;;;;;;;10.63;35.17;99100.41;5074051;28;20288;-77
2023/03/13 00:36:30;;;;;;;;;;;;;;;10.64;35.14;99093.41;5091735;28;19923;-77
2023/03/13 00:38:56;;;;;;;;;;;;;;;10.61;35.36;99099.69;5074065;28;19920;-77
2023/03/13 00:41:22;;;;;;;;;;;;;;;10.56;35.51;99093.94;5091439;28;20019;-77
2023/03/13 00:43:48;;;;;;;;;;;;;;;10.57;35.70;99100.84;5091367;28;20478;-77
2023/03/13 00:46:14;;;;;;;;;;;;;;;10.54;35.89;99093.22;5074064;28;20007;-78
2023/03/13 00:48:39;;;;;;;;;;;;;;;10.52;36.15;99091.69;5074154;28;19923;-77
2023/03/13 00:51:04;;;;;;;;;;;;;;;10.48;36.16;99085.81;5074148;28;19933;-77
2023/03/13 00:53:30;;;;;;;;;;;;;;;10.45;36.39;99080.81;5092456;28;19917;-75
2023/03/13 00:55:56;;;;;;;;;;;;;;;10.43;36.45;99093.16;5074179;28;20378;-76
2023/03/13 00:58:22;;;;;;;;;;;;;;;10.44;36.37;99097.44;5075733;28;20398;-76
2023/03/13 01:00:47;;;;;;;;;;;;;;;10.40;36.27;99098.56;5077605;28;20012;-75
2023/03/13 01:03:12;;;;;;;;;;;;;;;10.38;36.30;99103.09;5094421;28;19923;-76
2023/03/13 01:05:37;;;;;;;;;;;;;;;10.32;36.32;99099.94;5076854;28;19916;-76
2023/03/13 01:08:03;;;;;;;;;;;;;;;10.28;36.46;99106.28;5094559;28;19916;-77
2023/03/13 01:10:28;;;;;;;;;;;;;;;10.22;36.26;99100.66;5094484;28;19959;-77
2023/03/13 01:12:53;;;;;;;;;;;;;;;10.17;36.13;99108.81;5093523;28;20401;-77
2023/03/13 01:15:19;;;;;;;;;;;;;;;10.14;36.08;99104.63;5074368;28;19921;-77
2023/03/13 01:17:44;;;;;;;;;;;;;;;10.13;36.18;99109.94;5075286;28;19970;-77
2023/03/13 01:20:10;;;;;;;;;;;;;;;10.07;36.14;99113.81;5073947;28;19927;-78
2023/03/13 01:22:35;;;;;;;;;;;;;;;10.04;35.95;99107.97;5057328;28;19945;-77
2023/03/13 01:25:01;;;;;;;;;;;;;;;9.99;36.08;99116.09;5057778;28;20349;-77
2023/03/13 01:27:26;;;;;;;;;;;;;;;9.94;35.67;99115.59;5074066;28;20440;-77
2023/03/13 01:29:51;;;;;;;;;;;;;;;9.92;35.72;99107.03;5073906;28;19979;-77
2023/03/13 01:32:16;;;;;;;;;;;;;;;9.90;35.77;99114.97;5073917;28;19916;-77
2023/03/13 01:34:42;;;;;;;;;;;;;;;9.88;35.60;99113.38;5074243;28;20436;-77
2023/03/13 01:37:07;;;;;;;;;;;;;;;9.84;35.56;99119.75;5075122;28;19917;-78
2023/03/13 01:39:32;;;;;;;;;;;;;;;9.78;35.52;99123.59;5056770;28;20154;-78
2023/03/13 01:41:58;;;;;;;;;;;;;;;9.75;35.60;99127.25;5056592;28;19916;-78
2023/03/13 01:44:24;;;;;;;;;;;;;;;9.73;35.71;99125.69;5073874;28;19939;-77
2023/03/13 01:46:49;;;;;;;;;;;;;;;9.73;35.45;99136.13;5073818;28;19917;-77
2023/03/13 01:49:18;;;;;;;;;;;;;;;9.72;35.13;99140.47;5073579;28;20397;-77
2023/03/13 01:52:03;;;;;;;;;;;;;;;9.69;35.34;99142.47;5074065;28;19974;-77
2023/03/13 01:54:33;;;;;;;;;;;;;;;9.65;35.09;99149.66;5056804;28;20018;-77
2023/03/13 01:57:37;;;;;;;;;;;;;;;9.65;35.15;99146.22;5056625;28;19917;-77
2023/03/13 02:00:25;;;;;;;;;;;;;;;9.62;35.27;99152.47;5013198;28;20076;-78
2023/03/13 02:02:51;;;;;;;;;;;;;;;9.61;35.51;99150.78;4954810;29;19918;-77
2023/03/13 02:05:17;;;;;;;;;;;;;;;9.62;35.04;99164.66;4954557;28;19918;-78
2023/03/13 02:07:47;;;;;;;;;;;;;;;9.61;35.10;99166.41;4954417;29;19918;-77
2023/03/13 02:10:12;;;;;;;;;;;;;;;9.59;35.36;99166.50;4953656;28;19954;-77
2023/03/13 02:12:38;;;;;;;;;;;;;;;9.58;35.34;99170.09;4954078;28;19993;-77
2023/03/13 02:15:05;;;;;;;;;;;;;;;9.54;35.37;99173.81;4954191;29;20013;-77
2023/03/13 02:17:30;;;;;;;;;;;;;;;9.55;35.23;99182.44;4953707;29;19918;-77
2023/03/13 02:19:55;;;;;;;;;;;;;;;9.54;35.22;99183.41;4954224;29;19993;-77
2023/03/13 02:22:23;;;;;;;;;;;;;;;9.51;35.21;99178.41;4954097;29;19919;-77
2023/03/13 02:25:00;;;;;;;;;;;;;;;9.48;35.30;99173.38;4954220;29;20316;-77
2023/03/13 02:27:26;;;;;;;;;;;;;;;9.46;35.13;99183.06;4953777;28;19930;-77
2023/03/13 02:29:51;;;;;;;;;;;;;;;9.43;35.15;99191.09;4958795;28;19969;-77
2023/03/13 02:32:16;;;;;;;;;;;;;;;9.43;35.11;99198.91;4976462;28;19922;-76
2023/03/13 02:34:42;;;;;;;;;;;;;;;9.44;35.30;99200.56;4993015;28;19926;-77
2023/03/13 02:37:09;;;;;;;;;;;;;;;9.41;35.14;99199.84;4992525;28;19956;-77
2023/03/13 02:39:35;;;;;;;;;;;;;;;9.42;34.91;99205.88;5009388;28;19974;-77
2023/03/13 02:42:00;;;;;;;;;;;;;;;9.43;34.62;99197.13;5049240;28;19921;-77
2023/03/13 02:44:25;;;;;;;;;;;;;;;9.44;35.17;99211.84;5032939;28;19917;-77
2023/03/13 02:46:53;;;;;;;;;;;;;;;9.43;35.02;99202.34;5032888;28;19917;-77
2023/03/13 02:49:20;;;;;;;;;;;;;;;9.45;34.88;99212.66;5048876;28;19917;-77
2023/03/13 02:51:45;;;;;;;;;;;;;;;9.41;34.79;99207.66;5032525;28;19975;-77
2023/03/13 02:54:12;;;;;;;;;;;;;;;9.39;34.88;99221.69;5032573;28;19921;-76
2023/03/13 02:56:38;;;;;;;;;;;;;;;9.36;35.06;99227.09;5033666;28;19965;-77
2023/03/13 02:59:04;;;;;;;;;;;;;;;9.28;34.85;99222.38;5031496;28;19918;-77
2023/03/13 03:01:29;;;;;;;;;;;;;;;9.25;35.14;99227.81;5048938;28;19917;-77
2023/03/13 03:03:54;;;;;;;;;;;;;;;9.22;35.67;99228.00;5032431;28;19974;-77
2023/03/13 03:06:20;;;;;;;;;;;;;;;9.15;35.39;99234.50;5033645;28;19917;-77
2023/03/13 03:08:45;;;;;;;;;;;;;;;9.10;35.72;99229.59;5048858;28;19917;-78
2023/03/13 03:11:10;;;;;;;;;;;;;;;9.02;35.60;99227.44;5032078;28;19917;-77
2023/03/13 03:13:35;;;;;;;;;;;;;;;9.01;35.67;99237.97;5048782;28;19913;-78
2023/03/13 03:16:05;;;;;;;;;;;;;;;8.99;35.79;99237.22;5032134;28;20296;-77
2023/03/13 03:18:30;;;;;;;;;;;;;;;8.93;36.19;99235.00;5033504;28;20458;-77
2023/03/13 03:20:55;;;;;;;;;;;;;;;8.92;35.93;99238.53;5031333;28;19964;-77
2023/03/13 03:23:21;;;;;;;;;;;;;;;8.87;35.82;99239.66;5031989;28;20001;-77
2023/03/13 03:25:46;;;;;;;;;;;;;;;8.83;36.11;99245.16;5045260;28;19996;-77
2023/03/13 03:28:11;;;;;;;;;;;;;;;8.79;36.16;99247.09;5073239;28;20338;-77
2023/03/13 03:30:37;;;;;;;;;;;;;;;8.73;36.49;99252.69;5071852;28;20395;-77
2023/03/13 03:33:02;;;;;;;;;;;;;;;8.70;36.29;99255.47;5073149;28;19917;-77
2023/03/13 03:35:28;;;;;;;;;;;;;;;8.72;35.92;99261.41;5054827;28;19916;-77
2023/03/13 03:37:53;;;;;;;;;;;;;;;8.74;36.37;99272.56;5055213;28;19917;-78
2023/03/13 03:40:20;;;;;;;;;;;;;;;8.73;36.38;99270.91;5072641;28;20300;-78
2023/03/13 03:42:45;;;;;;;;;;;;;;;8.68;36.16;99272.91;5071419;28;20016;-78
2023/03/13 03:45:10;;;;;;;;;;;;;;;8.69;36.19;99279.81;5073081;28;20448;-78
2023/03/13 03:47:36;;;;;;;;;;;;;;;8.65;36.41;99286.13;5054354;28;20364;-78
2023/03/13 03:50:02;;;;;;;;;;;;;;;8.60;36.16;99283.81;5054622;28;20432;-78
2023/03/13 03:52:28;;;;;;;;;;;;;;;8.58;36.40;99280.44;5054671;28;19954;-78
2023/03/13 03:54:53;;;;;;;;;;;;;;;8.55;36.85;99277.19;5072422;28;19920;-78
2023/03/13 03:57:18;;;;;;;;;;;;;;;8.52;36.62;99286.00;5071396;28;19917;-78
2023/03/13 03:59:43;;;;;;;;;;;;;;;8.49;37.02;99284.44;5071853;28;20324;-78
2023/03/13 04:02:09;;;;;;;;;;;;;;;8.46;36.98;99294.16;5054232;28;20411;-78
2023/03/13 04:04:34;;;;;;;;;;;;;;;8.43;37.19;99292.59;5072640;28;20027;-78
2023/03/13 04:06:59;;;;;;;;;;;;;;;8.40;37.27;99292.75;5054656;28;20011;-78
2023/03/13 04:09:25;;;;;;;;;;;;;;;8.38;37.14;99302.41;5053990;28;19920;-77
2023/03/13 04:11:50;;;;;;;;;;;;;;;8.37;37.82;99303.34;5054605;28;19960;-75
2023/03/13 04:14:15;;;;;;;;;;;;;;;8.31;37.85;99303.69;5071586;28;19947;-78
2023/03/13 04:16:40;;;;;;;;;;;;;;;8.30;37.98;99304.59;5054323;28;19995;-75
2023/03/13 04:19:06;;;;;;;;;;;;;;;8.26;37.92;99297.91;5072579;28;19923;-77
2023/03/13 04:21:31;;;;;;;;;;;;;;;8.23;37.65;99298.09;5054674;28;19916;-75
2023/03/13 04:23:57;;;;;;;;;;;;;;;8.19;37.95;99305.25;5071110;28;20357;-75
2023/03/13 04:26:22;;;;;;;;;;;;;;;8.20;37.91;99321.69;5053749;28;19979;-76
2023/03/13 04:28:47;;;;;;;;;;;;;;;8.20;37.63;99329.47;5053714;28;20003;-76
2023/03/13 04:31:12;;;;;;;;;;;;;;;8.17;37.52;99332.25;5071040;28;19917;-76
2023/03/13 04:33:38;;;;;;;;;;;;;;;8.15;37.83;99332.34;5073263;28;20299;-76
2023/03/13 04:36:03;;;;;;;;;;;;;;;8.16;37.76;99341.84;5057947;28;20340;-76
2023/03/13 04:38:29;;;;;;;;;;;;;;;8.19;37.34;99338.19;5076452;28;19944;-79
2023/03/13 04:40:54;;;;;;;;;;;;;;;8.27;37.95;99336.84;5058293;28;19920;-83
2023/03/13 04:43:19;;;;;;;;;;;;;;;8.77;37.07;99342.66;5075879;28;19920;-80
2023/03/13 04:45:45;;;;;;;;;;;;;;;9.35;36.50;99340.91;5075270;28;19950;-80
2023/03/13 04:48:10;;;;;;;;;;;;;;;9.65;36.25;99339.94;5074644;28;19916;-78
2023/03/13 04:50:36;;;;;;;;;;;;;;;10.25;35.05;99328.28;5057894;28;19920;-78
2023/03/13 04:53:01;;;;;;;;;;;;;;;11.13;38.92;99337.25;5075207;28;19916;-78
2023/03/13 04:55:26;;;;;;;;;;;;;;;11.79;36.98;99335.25;5074930;28;20418;-74
2023/03/13 04:57:52;;;;;;;;;;;;;;;12.88;53.96;99341.25;5075758;28;20388;-81
2023/03/13 05:00:17;;;;;;;;;;;;;;;14.45;49.61;99344.59;5075846;28;19939;-77
2023/03/13 05:02:42;;;;;;;;;;;;;;;14.87;35.34;99335.94;5076065;28;20380;-75
2023/03/13 05:05:08;;;;;;;;;;;;;;;15.17;32.06;99348.25;5057015;28;19939;-76
2023/03/13 05:07:33;;;;;;;;;;;;;;;15.69;30.42;99356.06;5074716;28;20303;-79
2023/03/13 05:09:58;;;;;;;;;;;;;;;16.05;28.53;99357.25;5075640;28;19917;-75
2023/03/13 05:12:24;;;;;;;;;;;;;;;16.52;31.04;99353.91;5074474;28;19960;-76
2023/03/13 05:14:49;;;;;;;;;;;;;;;17.19;27.16;99351.31;5056811;28;19956;-90
2023/03/13 05:17:16;;;;;;;;;;;;;;;17.56;25.98;99345.19;5074716;28;19927;-85
2023/03/13 05:19:41;;;;;;;;;;;;;;;18.08;24.64;99349.91;5074771;28;19916;-76
2023/03/13 05:22:07;;;;;;;;;;;;;;;18.53;23.62;99354.25;5075118;28;20288;-81
2023/03/13 05:24:32;;;;;;;;;;;;;;;18.87;22.78;99356.19;5081240;28;19947;-81
2023/03/13 05:26:57;;;;;;;;;;;;;;;19.27;22.19;99360.03;5078019;28;20308;-81
2023/03/13 05:29:22;;;;;;;;;;;;;;;19.64;21.53;99366.84;5094143;28;19928;-80
2023/03/13 05:31:48;;;;;;;;;;;;;;;19.96;20.94;99365.28;5091546;28;19917;-81
2023/03/13 05:34:13;;;;;;;;;;;;;;;20.29;20.54;99373.31;5095085;28;19923;-81
2023/03/13 05:36:38;;;;;;;;;;;;;;;20.64;19.96;99375.81;5093940;28;19916;-81
2023/03/13 05:39:04;;;;;;;;;;;;;;;20.93;19.78;99368.16;5093557;28;19935;-80
2023/03/13 05:41:29;;;;;;;;;;;;;;;21.29;19.20;99366.91;5087952;28;20364;-80
2023/03/13 05:43:54;;;;;;;;;;;;;;;21.64;18.73;99362.16;5094304;28;19924;-83
2023/03/13 05:46:20;;;;;;;;;;;;;;;21.94;18.38;99368.47;5075942;28;20295;-82
2023/03/13 05:48:45;;;;;;;;;;;;;;;22.19;18.26;99360.34;5076068;28;19931;-81
2023/03/13 05:51:11;;;;;;;;;;;;;;;22.50;17.85;99351.50;5085713;28;19916;-81
2023/03/13 05:53:36;;;;;;;;;;;;;;;22.71;17.51;99364.13;5076392;28;19969;-81
2023/03/13 05:56:02;;;;;;;;;;;;;;;23.01;17.21;99357.00;5093575;28;20310;-82
2023/03/13 05:58:27;;;;;;;;;;;;;;;23.26;17.21;99357.59;5076371;28;19923;-81
2023/03/13 06:00:52;;;;;;;;;;;;;;;23.54;16.91;99362.25;5093733;28;19912;-82
2023/03/13 06:03:17;;;;;;;;;;;;;;;23.78;16.53;99363.78;5095099;28;19916;-81
2023/03/13 06:05:43;;;;;;;;;;;;;;;24.02;16.44;99373.31;5076918;28;19912;-81
2023/03/13 06:08:08;;;;;;;;;;;;;;;24.31;16.22;99365.38;5077122;28;19916;-81
2023/03/13 06:10:33;;;;;;;;;;;;;;;24.53;16.29;99375.03;5094189;28;19916;-81
2023/03/13 06:12:59;;;;;;;;;;;;;;;24.74;15.93;99371.50;5077133;28;19923;-81
2023/03/13 06:15:24;;;;;;;;;;;;;;;24.98;15.79;99377.44;5093487;28;20299;-82
2023/03/13 06:17:49;;;;;;;;;;;;;;;25.17;15.63;99378.59;5095220;28;20399;-83
2023/03/13 06:20:15;;;;;;;;;;;;;;;25.38;15.29;99382.22;5093179;28;19920;-83
2023/03/13 06:22:40;;;;;;;;;;;;;;;25.58;15.16;99382.31;5094822;28;20379;-82
2023/03/13 06:25:06;;;;;;;;;;;;;;;25.78;15.05;99383.22;5095131;28;20409;-81
2023/03/13 06:27:31;;;;;;;;;;;;;;;25.95;14.55;99380.19;5076211;28;20395;-81
2023/03/13 06:29:57;;;;;;;;;;;;;;;26.15;14.36;99381.09;5093205;28;20406;-83
2023/03/13 06:32:22;;;;;;;;;;;;;;;26.36;14.65;99384.63;5062078;28;19931;-85
2023/03/13 06:34:47;;;;;;;;;;;;;;;26.63;19.88;99384.63;5060392;28;19920;-78
2023/03/13 06:37:13;;;;;;;;;;;;;;;26.78;23.09;99398.69;5061250;28;20337;-80
2023/03/13 06:39:38;;;;;;;;;;;;;;;27.10;21.35;99396.19;5039539;28;19916;-80
2023/03/13 06:42:03;;;;;;;;;;;;;;;27.46;20.90;99397.56;5055886;28;19916;-78
2023/03/13 06:44:29;;;;;;;;;;;;;;;27.75;20.93;99393.56;5056104;28;20437;-79
2023/03/13 06:46:54;;;;;;;;;;;;;;;27.98;20.03;99393.03;5055750;28;20013;-79
2023/03/13 06:49:19;;;;;;;;;;;;;;;28.25;19.09;99400.94;5039045;28;19952;-79
2023/03/13 06:51:45;;;;;;;;;;;;;;;28.51;18.90;99399.94;5055935;28;19921;-78
2023/03/13 06:54:10;;;;;;;;;;;;;;;28.79;18.31;99403.25;5055882;28;19917;-79
2023/03/13 06:56:35;;;;;;;;;;;;;;;29.08;17.88;99406.31;5073726;28;19971;-76
2023/03/13 06:59:00;;;;;;;;;;;;;;;29.35;20.10;99396.97;5039218;28;19954;-79
2023/03/13 07:01:26;;;;;;;;;;;;;;;29.40;19.06;99402.47;5055809;28;20343;-80
2023/03/13 07:03:51;;;;;;;;;;;;;;;29.66;19.63;99402.41;5073417;28;20303;-79
2023/03/13 07:06:17;;;;;;;;;;;;;;;29.75;18.75;99399.16;5055897;28;19917;-79
2023/03/13 07:08:43;;;;;;;;;;;;;;;29.90;18.29;99401.50;5055293;28;20011;-80
2023/03/13 07:11:09;;;;;;;;;;;;;;;30.11;18.63;99404.75;5038841;28;20008;-79
2023/03/13 07:13:34;;;;;;;;;;;;;;;30.26;18.75;99399.72;5055525;28;19916;-80
2023/03/13 07:16:00;;;;;;;;;;;;;;;30.43;19.71;99405.31;5073230;28;19924;-81
2023/03/13 07:18:25;;;;;;;;;;;;;;;30.63;19.86;99409.56;5055019;28;19928;-81
2023/03/13 07:20:52;;;;;;;;;;;;;;;30.73;17.84;99400.91;5055614;28;20006;-83
2023/03/13 07:23:17;;;;;;;;;;;;;;;30.63;14.96;99398.78;5073723;28;19916;-83
2023/03/13 07:25:42;;;;;;;;;;;;;;;30.31;16.16;99399.03;5038544;28;19928;-83
2023/03/13 07:28:07;;;;;;;;;;;;;;;30.53;16.06;99402.03;5073282;28;19924;-81
2023/03/13 07:30:33;;;;;;;;;;;;;;;30.61;14.97;99399.00;5038743;28;19916;-82
2023/03/13 07:32:58;;;;;;;;;;;;;;;30.73;14.44;99398.22;5038967;28;19966;-77
2023/03/13 07:35:23;;;;;;;;;;;;;;;30.60;13.22;99392.00;5055412;28;20350;-76
2023/03/13 07:37:49;;;;;;;;;;;;;;;30.06;13.65;99394.66;5038985;28;19923;-81
2023/03/13 07:40:14;;;;;;;;;;;;;;;29.92;12.49;99401.25;5038719;28;20325;-77
2023/03/13 07:42:40;;;;;;;;;;;;;;;29.95;12.69;99393.56;5038535;28;19938;-82
2023/03/13 07:45:06;;;;;;;;;;;;;;;30.03;12.61;99388.88;5055170;28;19920;-82
2023/03/13 07:47:32;;;;;;;;;;;;;;;30.18;12.15;99400.06;5038775;28;19950;-82
2023/03/13 07:49:58;;;;;;;;;;;;;;;30.31;12.15;99394.50;5055204;28;19945;-81
2023/03/13 07:52:25;;;;;;;;;;;;;;;30.45;12.16;99411.28;5055141;28;19916;-82
2023/03/13 07:54:50;;;;;;;;;;;;;;;30.55;11.66;99401.81;5038767;28;19916;-82
2023/03/13 07:57:15;;;;;;;;;;;;;;;30.69;11.72;99400.53;5055332;28;19916;-82
2023/03/13 07:59:41;;;;;;;;;;;;;;;30.80;11.46;99405.13;5072853;28;20058;-81
2023/03/13 08:02:07;;;;;;;;;;;;;;;30.89;11.82;99408.31;5054817;28;19916;-82
2023/03/13 08:04:32;;;;;;;;;;;;;;;30.91;11.48;99410.75;5054969;28;19917;-80
2023/03/13 08:06:58;;;;;;;;;;;;;;;31.01;11.55;99408.31;5038289;28;19923;-81
2023/03/13 08:09:24;;;;;;;;;;;;;;;31.19;11.40;99408.19;5042036;28;20272;-82
2023/03/13 08:11:49;;;;;;;;;;;;;;;31.26;10.81;99408.06;5042859;28;19938;-81
2023/03/13 08:14:14;;;;;;;;;;;;;;;30.71;10.76;99411.94;5059075;28;20416;-82
2023/03/13 08:16:40;;;;;;;;;;;;;;;30.93;10.95;99401.41;5042254;28;19917;-82
2023/03/13 08:19:06;;;;;;;;;;;;;;;30.92;11.03;99410.53;5076866;28;19920;-79
2023/03/13 08:21:32;;;;;;;;;;;;;;;31.09;10.89;99416.06;5076807;28;19916;-80
2023/03/13 08:23:58;;;;;;;;;;;;;;;31.20;10.55;99401.75;5076866;28;19931;-81
2023/03/13 08:26:27;;;;;;;;;;;;;;;31.08;10.06;99409.03;5076580;28;20011;-80
2023/03/13 08:28:53;;;;;;;;;;;;;;;31.01;10.57;99398.38;5058791;28;20019;-81
2023/03/13 08:31:22;;;;;;;;;;;;;;;30.82;10.57;99405.72;5076852;28;19982;-80
2023/03/13 08:33:48;;;;;;;;;;;;;;;30.92;10.78;99405.13;5041850;28;19923;-80
2023/03/13 08:36:17;;;;;;;;;;;;;;;31.08;10.78;99411.72;5058890;28;19916;-81
2023/03/13 08:38:45;;;;;;;;;;;;;;;31.14;10.20;99401.88;5042083;28;20065;-81
2023/03/13 08:41:11;;;;;;;;;;;;;;;31.29;10.48;99399.50;5042087;28;20363;-81
2023/03/13 08:43:36;;;;;;;;;;;;;;;31.21;10.03;99400.69;5058297;28;19924;-83
2023/03/13 08:46:02;;;;;;;;;;;;;;;30.82;10.15;99394.94;5058563;28;20007;-80
2023/03/13 08:48:27;;;;;;;;;;;;;;;30.90;10.53;99384.84;5058654;28;19939;-84
2023/03/13 08:51:05;;;;;;;;;;;;;;;31.04;10.04;99391.66;5058325;28;20376;-81
2023/03/13 08:53:30;;;;;;;;;;;;;;;30.82;10.42;99389.56;5058518;28;20007;-81
2023/03/13 08:55:55;;;;;;;;;;;;;;;30.62;10.38;99386.38;5058015;28;19963;-83
2023/03/13 08:58:21;;;;;;;;;;;;;;;30.58;10.09;99404.06;5076033;28;19981;-79
2023/03/13 09:00:46;;;;;;;;;;;;;;;30.57;9.85;99386.22;5041281;28;19963;-83
2023/03/13 09:03:11;;;;;;;;;;;;;;;30.42;9.96;99392.06;5041995;28;19974;-82
2023/03/13 09:05:37;;;;;;;;;;;;;;;30.55;10.00;99386.47;5058166;28;19979;-82
2023/03/13 09:08:02;;;;;;;;;;;;;;;30.69;9.44;99386.25;5058493;28;19970;-85
2023/03/13 09:10:27;;;;;;;;;;;;;;;30.81;9.32;99389.78;5076188;28;20399;-82
2023/03/13 09:12:53;;;;;;;;;;;;;;;30.85;8.98;99394.47;5075937;28;20402;-83
2023/03/13 09:15:18;;;;;;;;;;;;;;;30.64;8.07;99400.44;5058260;28;19924;-82
2023/03/13 09:17:44;;;;;;;;;;;;;;;30.52;8.67;99402.28;5075777;28;19965;-80
2023/03/13 09:20:09;;;;;;;;;;;;;;;30.52;7.99;99395.03;5041645;28;20399;-81
2023/03/13 09:22:34;;;;;;;;;;;;;;;30.50;8.30;99399.81;5057914;28;19916;-81
2023/03/13 09:25:00;;;;;;;;;;;;;;;30.54;8.59;99401.00;5041142;28;19925;-82
2023/03/13 09:27:27;;;;;;;;;;;;;;;30.46;7.90;99395.97;5041464;28;19924;-84
2023/03/13 09:29:53;;;;;;;;;;;;;;;29.91;8.74;99392.34;5041008;28;19974;-81
2023/03/13 09:32:19;;;;;;;;;;;;;;;29.88;8.90;99406.25;5041798;28;19916;-81
2023/03/13 09:34:44;;;;;;;;;;;;;;;29.88;8.72;99413.53;5057727;28;19917;-82
2023/03/13 09:37:10;;;;;;;;;;;;;;;29.80;8.45;99403.09;5057828;28;19916;-85
2023/03/13 09:39:35;;;;;;;;;;;;;;;29.74;8.34;99394.00;5057938;28;20019;-83
2023/03/13 09:42:04;;;;;;;;;;;;;;;29.64;8.54;99389.16;5041575;28;20394;-83
2023/03/13 09:44:34;;;;;;;;;;;;;;;29.59;8.81;99397.91;5076149;28;19920;-82
2023/03/13 09:47:03;;;;;;;;;;;;;;;29.50;8.93;99396.56;5075516;28;19917;-80
2023/03/13 09:49:47;;;;;;;;;;;;;;;29.42;9.09;99391.50;5040859;28;19920;-82
2023/03/13 09:52:25;;;;;;;;;;;;;;;29.41;8.77;99379.09;5075492;28;19916;-83
2023/03/13 09:54:59;;;;;;;;;;;;;;;29.32;9.13;99381.28;5057278;28;19917;-80
2023/03/13 09:57:39;;;;;;;;;;;;;;;29.07;9.00;99381.28;5057501;28;19917;-82
2023/03/13 10:00:11;;;;;;;;;;;;;;;28.93;8.82;99364.47;5075315;28;19916;-82
2023/03/13 10:02:36;;;;;;;;;;;;;;;28.64;8.60;99374.06;5041385;28;20288;-81
2023/03/13 10:05:24;;;;;;;;;;;;;;;28.50;8.98;99362.56;5040192;28;19916;-79
2023/03/13 10:07:49;;;;;;;;;;;;;;;28.42;9.05;99362.84;5057945;28;19916;-84
2023/03/13 10:10:19;;;;;;;;;;;;;;;28.24;8.55;99353.66;5040390;28;19920;-82
2023/03/13 10:12:45;;;;;;;;;;;;;;;28.12;8.86;99342.00;5040994;28;20269;-83
2023/03/13 10:15:29;;;;;;;;;;;;;;;27.93;8.67;99351.78;5057275;28;19973;-82
2023/03/13 10:17:54;;;;;;;;;;;;;;;27.75;8.78;99347.97;5057274;28;19974;-82
2023/03/13 10:20:24;;;;;;;;;;;;;;;27.65;9.35;99339.53;5057432;28;19920;-82
2023/03/13 10:23:19;;;;;;;;;;;;;;;27.40;9.61;99340.25;5057705;28;19916;-83
2023/03/13 10:25:44;;;;;;;;;;;;;;;27.26;9.55;99336.78;4996596;28;19972;-84
2023/03/13 10:28:10;;;;;;;;;;;;;;;27.19;9.69;99344.00;4980329;28;19956;-85
2023/03/13 10:30:38;;;;;;;;;;;;;;;27.08;9.87;99342.78;4996101;28;20487;-85
2023/03/13 10:33:06;;;;;;;;;;;;;;;27.00;10.58;99348.38;4981198;28;19923;-82
2023/03/13 10:35:35;;;;;;;;;;;;;;;26.84;10.60;99343.47;4996593;28;19922;-84
2023/03/13 10:38:12;;;;;;;;;;;;;;;26.71;10.28;99338.97;4998086;28;19948;-81
2023/03/13 10:40:38;;;;;;;;;;;;;;;26.65;10.73;99332.56;5012833;28;19925;-83
2023/03/13 10:43:04;;;;;;;;;;;;;;;26.57;10.88;99337.28;4979910;28;19917;-81
2023/03/13 10:45:34;;;;;;;;;;;;;;;26.51;11.17;99346.97;4995869;28;19925;-82
2023/03/13 10:48:00;;;;;;;;;;;;;;;26.26;11.01;99336.03;4979531;28;19948;-83
2023/03/13 10:50:25;;;;;;;;;;;;;;;25.96;11.07;99336.38;4995798;28;20468;-84
2023/03/13 10:52:51;;;;;;;;;;;;;;;25.50;11.54;99334.41;4996118;28;20352;-82
2023/03/13 10:55:18;;;;;;;;;;;;;;;25.19;11.37;99335.66;4995976;28;19924;-81
2023/03/13 10:58:03;;;;;;;;;;;;;;;25.00;11.85;99327.34;4996059;28;19924;-82
2023/03/13 11:00:35;;;;;;;;;;;;;;;24.89;12.15;99325.19;5012181;28;19922;-83
2023/03/13 11:03:01;;;;;;;;;;;;;;;24.85;12.01;99335.44;5048077;28;19920;-82
2023/03/13 11:05:28;;;;;;;;;;;;;;;24.68;12.08;99318.91;5056272;28;19968;-82
2023/03/13 11:07:54;;;;;;;;;;;;;;;24.46;12.05;99309.25;5073795;28;20364;-83
2023/03/13 11:10:20;;;;;;;;;;;;;;;24.32;11.94;99300.31;5039036;28;19923;-81
2023/03/13 11:12:46;;;;;;;;;;;;;;;24.17;12.21;99290.56;5039169;28;20375;-81
2023/03/13 11:15:12;;;;;;;;;;;;;;;24.01;12.08;99298.81;5073395;28;19924;-82
2023/03/13 11:17:38;;;;;;;;;;;;;;;23.89;12.68;99300.34;5056071;28;19923;-80
2023/03/13 11:20:16;;;;;;;;;;;;;;;23.77;12.47;99289.34;5038982;28;19920;-82
2023/03/13 11:22:48;;;;;;;;;;;;;;;23.69;12.75;99292.94;5073221;28;19948;-81
2023/03/13 11:25:20;;;;;;;;;;;;;;;23.58;12.37;99290.78;5056015;28;19925;-83
2023/03/13 11:28:04;;;;;;;;;;;;;;;23.44;12.81;99281.81;5038334;28;19924;-82
2023/03/13 11:30:47;;;;;;;;;;;;;;;23.02;12.74;99269.97;5073534;28;19920;-81
2023/03/13 11:33:29;;;;;;;;;;;;;;;22.40;12.93;99272.75;5073587;28;19952;-82
2023/03/13 11:36:01;;;;;;;;;;;;;;;22.07;13.01;99271.38;5055081;28;20015;-83
2023/03/13 11:38:30;;;;;;;;;;;;;;;22.01;13.44;99278.22;5055311;28;19939;-82
2023/03/13 11:41:14;;;;;;;;;;;;;;;21.96;13.53;99264.63;5055629;28;19921;-87
2023/03/13 11:43:58;;;;;;;;;;;;;;;21.77;13.27;99264.09;5072247;28;20300;-86
2023/03/13 11:46:23;;;;;;;;;;;;;;;21.69;13.74;99258.84;5073117;28;19917;-83
2023/03/13 11:48:48;;;;;;;;;;;;;;;21.64;13.85;99259.38;5073185;28;20442;-82
2023/03/13 11:51:26;;;;;;;;;;;;;;;21.05;13.99;99249.22;5054816;28;19917;-82
2023/03/13 11:54:10;;;;;;;;;;;;;;;21.01;14.00;99250.53;5055076;28;19956;-82
2023/03/13 11:56:41;;;;;;;;;;;;;;;20.98;14.30;99244.75;5073408;28;19939;-81
2023/03/13 11:59:06;;;;;;;;;;;;;;;20.72;14.54;99243.19;5072989;28;20315;-79
2023/03/13 12:01:34;;;;;;;;;;;;;;;20.04;15.02;99242.59;5074085;28;19987;-82
2023/03/13 12:04:18;;;;;;;;;;;;;;;19.85;15.30;99244.56;5055520;28;19917;-82
2023/03/13 12:06:45;;;;;;;;;;;;;;;19.88;15.50;99243.41;5055062;28;20445;-82
2023/03/13 12:09:14;;;;;;;;;;;;;;;19.88;15.57;99249.53;5038213;28;19920;-83
2023/03/13 12:11:42;;;;;;;;;;;;;;;19.89;16.00;99234.44;5038693;28;19923;-82
2023/03/13 12:14:21;;;;;;;;;;;;;;;19.91;16.16;99229.00;5038894;28;19917;-82
2023/03/13 12:16:49;;;;;;;;;;;;;;;19.94;16.20;99231.31;5055022;28;19923;-83
2023/03/13 12:19:35;;;;;;;;;;;;;;;19.96;16.08;99227.50;5055236;28;19959;-82
2023/03/13 12:22:05;;;;;;;;;;;;;;;19.97;16.24;99229.19;5072523;28;19923;-84
2023/03/13 12:24:35;;;;;;;;;;;;;;;19.85;16.27;99220.72;5038298;28;20368;-83
2023/03/13 12:27:15;;;;;;;;;;;;;;;19.70;16.29;99217.88;5037924;28;20483;-83
2023/03/13 12:29:43;;;;;;;;;;;;;;;19.64;16.42;99212.38;5037700;28;19923;-82
2023/03/13 12:32:13;;;;;;;;;;;;;;;19.62;16.21;99217.84;5055116;28;19916;-83
2023/03/13 12:34:45;;;;;;;;;;;;;;;19.61;16.29;99208.25;5055011;28;19970;-84
2023/03/13 12:37:11;;;;;;;;;;;;;;;19.59;16.49;99206.75;5054541;28;19956;-84
2023/03/13 12:39:42;;;;;;;;;;;;;;;19.57;16.50;99204.28;5072308;28;19978;-82
2023/03/13 12:42:09;;;;;;;;;;;;;;;19.49;16.35;99209.56;5072553;28;19920;-83
2023/03/13 12:44:34;;;;;;;;;;;;;;;19.47;16.48;99204.44;5054627;28;19916;-82
2023/03/13 12:47:00;;;;;;;;;;;;;;;19.40;16.25;99206.06;5037844;28;20456;-82
2023/03/13 12:49:37;;;;;;;;;;;;;;;19.15;16.39;99208.66;5072534;28;20323;-79